Time;durP1;ratioP1;P1;durP2;ratioP2;P2;SDS_P1;SDS_P2;PMS_P1;PMS_P2;Temp;Humidity;BMP_temperature;BMP_pressure;BME280_temperature;BME280_humidity;BME280_pressure;Samples;Min_cycle;Max_cycle;Signal;HPM_P1;HPM_P2
2021/01/12 00:01:38;;;;;;;3.03;2.23;;;;;;;-2.44;81.44;95586.81;5056924;28;20279;-72
2021/01/12 00:04:04;;;;;;;3.63;2.70;;;;;;;-2.43;81.72;95580.84;5042619;28;20223;-72
2021/01/12 00:06:29;;;;;;;3.07;2.47;;;;;;;-2.40;81.22;95578.16;5060982;28;20618;-72
2021/01/12 00:08:54;;;;;;;3.57;2.50;;;;;;;-2.32;81.03;95573.53;5057014;28;20221;-73
2021/01/12 00:11:21;;;;;;;4.03;2.40;;;;;;;-2.40;81.08;95558.63;5056785;28;20193;-73
2021/01/12 00:13:46;;;;;;;3.43;2.20;;;;;;;-2.32;80.64;95535.41;5074787;28;20245;-73
2021/01/12 00:16:12;;;;;;;3.60;2.80;;;;;;;-2.22;80.54;95526.44;5040043;28;20177;-73
2021/01/12 00:18:37;;;;;;;5.60;4.00;;;;;;;-2.39;80.84;95529.75;5056438;28;20573;-73
2021/01/12 00:21:02;;;;;;;8.73;5.43;;;;;;;-2.61;79.92;95535.00;5056321;28;20187;-73
2021/01/12 00:23:28;;;;;;;9.40;5.90;;;;;;;-2.72;79.83;95536.38;5056336;28;20273;-73
2021/01/12 00:25:53;;;;;;;10.00;6.97;;;;;;;-2.77;79.45;95535.75;5056639;28;20183;-73
2021/01/12 00:28:18;;;;;;;10.83;6.90;;;;;;;-2.79;79.10;95529.91;5074370;28;20226;-73
2021/01/12 00:30:43;;;;;;;9.23;6.87;;;;;;;-3.08;78.46;95526.94;5056321;28;20225;-73
2021/01/12 00:33:09;;;;;;;10.93;7.63;;;;;;;-3.23;79.39;95536.03;5039583;28;20223;-73
2021/01/12 00:35:34;;;;;;;11.17;7.87;;;;;;;-3.29;78.66;95536.28;5038983;28;20192;-73
2021/01/12 00:37:59;;;;;;;12.70;7.83;;;;;;;-3.30;78.77;95537.16;5056324;28;20202;-73
2021/01/12 00:40:25;;;;;;;13.73;8.60;;;;;;;-3.37;79.36;95530.69;5073920;28;20208;-73
2021/01/12 00:42:50;;;;;;;11.60;7.90;;;;;;;-3.43;79.84;95523.34;5056341;28;20213;-73
2021/01/12 00:45:15;;;;;;;12.63;8.10;;;;;;;-3.30;79.51;95526.19;5073880;28;20246;-73
2021/01/12 00:47:43;;;;;;;11.67;8.00;;;;;;;-3.37;78.85;95523.06;5055886;28;20212;-73
2021/01/12 00:50:09;;;;;;;13.23;8.53;;;;;;;-3.45;78.91;95520.03;5055503;28;20673;-73
2021/01/12 00:52:34;;;;;;;15.80;8.77;;;;;;;-3.45;79.41;95520.03;5073777;28;20243;-73
2021/01/12 00:54:59;;;;;;;12.90;9.43;;;;;;;-3.44;78.99;95516.63;5073613;28;20178;-73
2021/01/12 00:57:24;;;;;;;15.23;9.23;;;;;;;-3.47;78.90;95524.34;5072832;28;20210;-73
2021/01/12 00:59:50;;;;;;;16.43;9.17;;;;;;;-3.52;78.92;95528.81;5055062;28;20516;-73
2021/01/12 01:02:15;;;;;;;14.13;9.40;;;;;;;-3.51;78.38;95525.38;5055749;28;20222;-73
2021/01/12 01:04:40;;;;;;;16.03;9.33;;;;;;;-3.63;78.96;95530.94;5055747;28;20220;-74
2021/01/12 01:07:06;;;;;;;13.23;9.63;;;;;;;-3.57;78.62;95528.16;5073279;28;20205;-73
2021/01/12 01:09:31;;;;;;;15.23;9.63;;;;;;;-3.54;78.29;95525.47;5073006;28;20545;-73
2021/01/12 01:11:56;;;;;;;19.53;9.90;;;;;;;-3.73;78.37;95523.69;5073583;28;20181;-73
2021/01/12 01:14:22;;;;;;;12.13;8.83;;;;;;;-3.66;79.10;95526.00;5073584;28;20356;-73
2021/01/12 01:16:48;;;;;;;15.27;8.97;;;;;;;-3.64;79.39;95537.72;5055307;28;20265;-73
2021/01/12 01:19:13;;;;;;;14.30;8.77;;;;;;;-3.56;80.44;95524.72;5055252;28;20556;-73
2021/01/12 01:21:38;;;;;;;10.63;7.50;;;;;;;-3.43;80.42;95529.25;5055504;28;20196;-73
2021/01/12 01:24:05;;;;;;;10.73;6.87;;;;;;;-3.25;81.51;95525.09;5055689;28;20368;-73
2021/01/12 01:26:30;;;;;;;10.80;6.63;;;;;;;-2.93;81.47;95518.63;5038486;28;20664;-73
2021/01/12 01:28:56;;;;;;;9.13;6.83;;;;;;;-3.01;81.46;95525.75;5055170;28;20224;-73
2021/01/12 01:31:22;;;;;;;9.57;6.03;;;;;;;-3.00;81.29;95529.16;5055657;28;20247;-73
2021/01/12 01:33:48;;;;;;;9.23;6.57;;;;;;;-2.99;80.94;95520.63;5073169;28;20178;-73
2021/01/12 01:36:13;;;;;;;11.93;5.67;;;;;;;-2.90;81.50;95513.44;5038356;28;20295;-73
2021/01/12 01:38:39;;;;;;;7.73;4.80;;;;;;;-2.74;81.73;95527.97;5054519;28;20252;-73
2021/01/12 01:41:06;;;;;;;6.80;3.90;;;;;;;-2.48;82.51;95526.81;5054919;28;20257;-73
2021/01/12 01:43:31;;;;;;;6.87;4.20;;;;;;;-2.42;82.90;95517.19;5055068;28;20212;-73
2021/01/12 01:45:56;;;;;;;7.53;5.67;;;;;;;-2.53;81.64;95518.59;5054893;28;20205;-73
2021/01/12 01:48:22;;;;;;;5.53;4.60;;;;;;;-2.48;82.19;95503.91;5054637;28;20211;-73
2021/01/12 01:50:47;;;;;;;6.67;4.07;;;;;;;-2.25;81.80;95490.97;5072688;28;20185;-73
2021/01/12 01:53:12;;;;;;;7.90;5.43;;;;;;;-2.32;81.73;95484.53;5072804;28;20183;-73
2021/01/12 01:55:39;;;;;;;10.03;6.43;;;;;;;-2.40;80.84;95476.41;5054483;28;20177;-73
2021/01/12 01:58:06;;;;;;;10.03;6.20;;;;;;;-2.55;80.66;95472.06;5054741;28;20676;-73
2021/01/12 02:00:36;;;;;;;8.07;5.37;;;;;;;-2.48;81.60;95471.69;5037684;28;20756;-73
2021/01/12 02:03:12;;;;;;;8.77;5.27;;;;;;;-2.39;81.96;95467.91;5037976;28;20642;-73
2021/01/12 02:05:47;;;;;;;8.60;5.30;;;;;;;-2.36;80.99;95463.50;5072626;28;20177;-73
2021/01/12 02:08:18;;;;;;;9.10;6.27;;;;;;;-2.34;81.34;95471.06;5072213;28;20618;-73
2021/01/12 02:10:47;;;;;;;9.13;5.90;;;;;;;-2.42;81.16;95455.34;5053930;28;20270;-73
2021/01/12 02:13:14;;;;;;;9.97;7.03;;;;;;;-2.38;80.73;95455.13;5037675;28;20192;-73
2021/01/12 02:15:40;;;;;;;8.50;5.80;;;;;;;-2.51;81.36;95450.69;5046188;28;20602;-73
2021/01/12 02:18:06;;;;;;;7.80;5.60;;;;;;;-2.44;81.50;95447.78;5037651;28;20203;-73
2021/01/12 02:20:32;;;;;;;9.17;5.83;;;;;;;-2.40;81.41;95440.81;5053885;28;20204;-73
2021/01/12 02:23:34;;;;;;;8.73;5.13;;;;;;;-2.42;80.86;95438.34;5054738;28;20178;-73
2021/01/12 02:26:00;;;;;;;11.37;7.93;;;;;;;-2.54;79.91;95444.03;5049929;28;20623;-73
2021/01/12 02:28:25;;;;;;;12.47;7.83;;;;;;;-2.73;80.25;95445.78;5037233;28;20240;-73
2021/01/12 02:30:51;;;;;;;11.07;7.67;;;;;;;-2.75;80.57;95443.28;5054036;28;20215;-73
2021/01/12 02:33:16;;;;;;;13.37;8.83;;;;;;;-2.65;80.13;95441.13;5072160;28;20187;-73
2021/01/12 02:35:43;;;;;;;11.80;8.07;;;;;;;-2.77;79.56;95432.38;5071929;28;20187;-73
2021/01/12 02:38:08;;;;;;;12.67;7.77;;;;;;;-2.77;80.37;95427.28;5054062;28;20235;-73
2021/01/12 02:40:34;;;;;;;14.37;9.03;;;;;;;-2.87;80.64;95426.06;5053626;28;20179;-73
2021/01/12 02:43:00;;;;;;;13.07;8.40;;;;;;;-2.88;80.23;95422.69;5071619;28;20187;-73
2021/01/12 02:45:25;;;;;;;13.10;8.67;;;;;;;-2.86;80.60;95423.44;5053851;28;20565;-73
2021/01/12 02:47:50;;;;;;;14.77;9.47;;;;;;;-2.87;80.34;95411.63;5053775;28;20591;-73
2021/01/12 02:50:16;;;;;;;14.27;7.97;;;;;;;-2.83;80.82;95412.31;5036706;28;20186;-73
2021/01/12 02:52:42;;;;;;;15.37;9.07;;;;;;;-2.86;80.63;95408.19;5053897;28;20760;-73
2021/01/12 02:55:09;;;;;;;13.27;7.83;;;;;;;-2.87;80.74;95393.03;5054013;28;20547;-73
2021/01/12 02:57:34;;;;;;;10.23;7.53;;;;;;;-2.89;81.25;95392.28;5053409;28;20327;-73
2021/01/12 03:00:01;;;;;;;12.00;7.77;;;;;;;-2.90;81.21;95395.72;5053581;28;20730;-73
2021/01/12 03:02:26;;;;;;;11.43;7.37;;;;;;;-2.81;82.50;95384.31;5071527;28;20192;-73
2021/01/12 03:04:51;;;;;;;13.50;7.47;;;;;;;-2.74;82.17;95381.41;5071378;28;20182;-73
2021/01/12 03:07:16;;;;;;;9.40;5.77;;;;;;;-2.51;83.64;95376.94;5053610;28;20584;-73
2021/01/12 03:09:42;;;;;;;6.23;4.57;;;;;;;-2.25;84.25;95366.34;5058679;28;20212;-73
2021/01/12 03:12:08;;;;;;;6.40;4.27;;;;;;;-2.07;84.52;95373.06;5060713;28;20191;-73
2021/01/12 03:14:33;;;;;;;5.23;4.50;;;;;;;-1.91;84.47;95367.22;5037344;28;20201;-73
2021/01/12 03:16:59;;;;;;;10.83;6.03;;;;;;;-1.98;82.81;95361.59;5053620;28;20198;-73
2021/01/12 03:19:24;;;;;;;11.13;6.87;;;;;;;-2.19;82.13;95360.97;5036306;28;20255;-73
2021/01/12 03:21:49;;;;;;;10.77;6.50;;;;;;;-2.11;81.49;95351.22;5070713;28;20191;-73
2021/01/12 03:24:15;;;;;;;9.37;6.93;;;;;;;-2.27;81.79;95352.88;5071349;28;20650;-73
2021/01/12 03:26:40;;;;;;;11.63;8.60;;;;;;;-2.39;81.55;95346.66;5053270;28;20202;-73
2021/01/12 03:29:05;;;;;;;10.40;6.97;;;;;;;-2.35;81.60;95332.09;5053012;28;20186;-73
2021/01/12 03:31:30;;;;;;;10.90;6.17;;;;;;;-2.41;83.01;95340.81;5053110;28;20275;-73
2021/01/12 03:33:56;;;;;;;10.10;6.63;;;;;;;-2.36;82.82;95346.53;5071072;28;20638;-73
2021/01/12 03:36:22;;;;;;;11.43;7.10;;;;;;;-2.32;82.84;95337.00;5053175;28;20337;-74
2021/01/12 03:38:47;;;;;;;6.27;4.50;;;;;;;-2.00;84.42;95336.25;5053048;28;20202;-73
2021/01/12 03:41:13;;;;;;;7.23;4.27;;;;;;;-1.93;84.36;95334.22;5071099;28;20212;-73
2021/01/12 03:43:38;;;;;;;5.30;3.20;;;;;;;-1.61;85.10;95330.00;5071172;28;20185;-73
2021/01/12 03:46:03;;;;;;;4.20;3.30;;;;;;;-1.51;85.12;95328.63;5052913;28;20191;-73
2021/01/12 03:48:29;;;;;;;4.47;3.07;;;;;;;-1.17;84.51;95321.75;5052480;28;20242;-73
2021/01/12 03:50:54;;;;;;;3.70;2.93;;;;;;;-1.02;84.38;95323.47;5036375;28;20231;-73
2021/01/12 03:53:20;;;;;;;4.67;3.03;;;;;;;-1.00;84.22;95316.56;5053090;28;20189;-73
2021/01/12 03:55:45;;;;;;;4.90;3.23;;;;;;;-1.08;84.04;95310.22;5070635;28;20194;-73
2021/01/12 03:58:10;;;;;;;4.33;3.03;;;;;;;-0.90;84.18;95293.94;5070908;28;20203;-73
2021/01/12 04:00:36;;;;;;;3.53;2.70;;;;;;;-0.90;84.03;95296.47;5052686;28;20194;-74
2021/01/12 04:03:01;;;;;;;4.97;2.77;;;;;;;-0.87;84.52;95297.16;5053205;28;20213;-74
2021/01/12 04:05:28;;;;;;;4.23;2.57;;;;;;;-0.70;84.03;95300.50;5052914;28;20184;-74
2021/01/12 04:07:54;;;;;;;3.47;1.83;;;;;;;-0.58;83.61;95297.25;5053073;28;20303;-73
2021/01/12 04:10:20;;;;;;;3.07;2.20;;;;;;;-0.56;83.04;95300.53;5052339;28;20279;-74
2021/01/12 04:12:45;;;;;;;3.73;2.33;;;;;;;-0.42;82.67;95292.94;5052992;28;20742;-73
2021/01/12 04:15:11;;;;;;;4.47;2.80;;;;;;;-0.51;83.20;95301.09;5070788;28;20183;-74
2021/01/12 04:17:36;;;;;;;3.97;2.57;;;;;;;-0.58;83.06;95282.75;5070797;28;20231;-74
2021/01/12 04:20:02;;;;;;;2.57;2.00;;;;;;;-0.49;83.50;95280.59;5070990;28;20183;-74
2021/01/12 04:22:28;;;;;;;3.53;2.60;;;;;;;-0.37;83.47;95270.50;5070557;28;20184;-73
2021/01/12 04:24:53;;;;;;;5.80;2.40;;;;;;;-0.38;83.72;95271.41;5052679;28;20651;-74
2021/01/12 04:27:18;;;;;;;4.23;2.50;;;;;;;-0.36;83.41;95273.88;5036077;28;20521;-73
2021/01/12 04:29:44;;;;;;;2.73;2.10;;;;;;;-0.38;83.21;95266.31;5070469;28;20200;-73
2021/01/12 04:32:09;;;;;;;2.17;1.80;;;;;;;-0.31;83.20;95257.41;5071206;28;20219;-73
2021/01/12 04:34:34;;;;;;;2.37;1.60;;;;;;;-0.33;83.68;95256.69;5074072;28;20555;-74
2021/01/12 04:37:00;;;;;;;2.90;1.93;;;;;;;-0.28;83.50;95254.66;5056445;28;20223;-73
2021/01/12 04:39:25;;;;;;;2.10;1.70;;;;;;;-0.26;83.33;95259.69;5055819;28;20191;-74
2021/01/12 04:41:50;;;;;;;2.07;1.57;;;;;;;-0.16;83.88;95252.31;5056387;28;20192;-73
2021/01/12 04:44:15;;;;;;;2.30;1.67;;;;;;;-0.21;83.83;95239.81;5056397;28;20259;-74
2021/01/12 04:46:41;;;;;;;2.30;1.70;;;;;;;-0.11;83.62;95243.47;5074115;28;20251;-74
2021/01/12 04:49:06;;;;;;;3.87;1.53;;;;;;;-0.13;83.62;95231.72;5056172;28;20191;-74
2021/01/12 04:51:31;;;;;;;2.53;1.50;;;;;;;-0.06;83.79;95233.00;5056154;28;21040;-74
2021/01/12 04:53:57;;;;;;;1.40;1.30;;;;;;;-0.04;83.65;95226.06;5056277;28;20180;-74
2021/01/12 04:56:23;;;;;;;1.40;1.30;;;;;;;-0.01;83.65;95234.34;5073881;28;20705;-74
2021/01/12 04:58:53;;;;;;;1.90;1.30;;;;;;;-0.02;83.44;95214.84;5073704;28;20209;-74
2021/01/12 05:01:23;;;;;;;1.43;1.20;;;;;;;-0.10;83.84;95214.47;5055829;28;20633;-74
2021/01/12 05:03:50;;;;;;;3.83;1.80;;;;;;;-0.16;83.91;95214.03;5039388;28;20212;-74
2021/01/12 05:06:18;;;;;;;2.20;1.33;;;;;;;-0.17;84.23;95209.84;5056049;28;20283;-74
2021/01/12 05:08:45;;;;;;;2.67;1.70;;;;;;;-0.18;84.74;95203.91;5073123;28;20673;-74
2021/01/12 05:11:12;;;;;;;1.50;1.40;;;;;;;-0.19;84.54;95202.25;5039134;28;20238;-74
2021/01/12 05:13:41;;;;;;;1.43;1.23;;;;;;;-0.11;84.47;95197.53;5055668;28;20664;-74
2021/01/12 05:16:08;;;;;;;3.47;2.27;;;;;;;-0.17;84.87;95197.91;5055673;28;20183;-74
2021/01/12 05:18:38;;;;;;;3.90;1.20;;;;;;;-0.17;84.76;95186.88;5073430;28;20215;-75
2021/01/12 05:21:06;;;;;;;1.83;1.13;;;;;;;-0.18;84.69;95191.13;5055614;28;20185;-74
2021/01/12 05:23:43;;;;;;;1.37;1.10;;;;;;;-0.13;84.58;95180.66;5055634;28;20245;-73
2021/01/12 05:26:10;;;;;;;1.57;1.37;;;;;;;-0.20;84.50;95184.50;5055350;28;20222;-74
2021/01/12 05:28:35;;;;;;;1.33;1.23;;;;;;;-0.08;84.63;95171.03;5054810;28;20620;-74
2021/01/12 05:31:05;;;;;;;1.47;1.30;;;;;;;-0.18;84.96;95168.16;5055445;28;20227;-74
2021/01/12 05:33:30;;;;;;;1.13;1.03;;;;;;;-0.16;84.63;95166.38;5055069;28;20196;-74
2021/01/12 05:35:56;;;;;;;1.30;1.20;;;;;;;-0.11;84.39;95164.34;5054846;28;20215;-74
2021/01/12 05:38:27;;;;;;;1.30;1.00;;;;;;;-0.10;84.53;95172.81;5055003;28;20202;-74
2021/01/12 05:40:54;;;;;;;1.43;1.10;;;;;;;-0.05;84.38;95178.47;5054791;28;20523;-74
2021/01/12 05:43:19;;;;;;;1.13;1.03;;;;;;;-0.06;84.13;95166.63;5077903;28;20184;-74
2021/01/12 05:45:45;;;;;;;1.10;1.00;;;;;;;-0.06;84.05;95161.53;5054043;28;20242;-75
2021/01/12 05:48:11;;;;;;;1.33;1.23;;;;;;;-0.13;84.36;95166.19;5054808;28;20652;-75
2021/01/12 05:50:37;;;;;;;1.00;0.90;;;;;;;-0.11;84.42;95168.63;5054737;28;21350;-74
2021/01/12 05:53:13;;;;;;;1.70;1.37;;;;;;;-0.05;84.12;95158.88;5054232;28;20195;-74
2021/01/12 05:55:40;;;;;;;4.00;1.07;;;;;;;-0.02;84.25;95152.75;5039073;28;20196;-74
2021/01/12 05:58:27;;;;;;;1.77;1.40;;;;;;;0.02;83.92;95154.22;5072668;28;20204;-74
2021/01/12 06:00:53;;;;;;;2.00;1.00;;;;;;;0.03;83.89;95155.88;5037816;28;20292;-74
2021/01/12 06:03:19;;;;;;;1.77;1.10;;;;;;;-0.04;84.11;95152.84;5054713;28;20214;-74
2021/01/12 06:05:46;;;;;;;1.47;1.37;;;;;;;-0.10;84.39;95142.19;5054725;28;20181;-75
2021/01/12 06:08:15;;;;;;;0.93;0.80;;;;;;;-0.08;84.42;95150.59;5054677;28;20212;-75
2021/01/12 06:10:43;;;;;;;1.17;1.07;;;;;;;0.07;84.04;95159.03;5054154;28;20501;-74
2021/01/12 06:13:13;;;;;;;1.30;1.20;;;;;;;-0.01;83.96;95149.28;5037862;28;20292;-74
2021/01/12 06:15:40;;;;;;;1.30;1.00;;;;;;;-0.02;84.19;95145.91;5060065;28;20180;-75
2021/01/12 06:18:11;;;;;;;1.23;1.13;;;;;;;-0.02;84.20;95145.09;5071285;28;20201;-75
2021/01/12 06:21:12;;;;;;;1.47;1.10;;;;;;;-0.10;84.27;95137.91;5037382;28;20623;-74
2021/01/12 06:23:55;;;;;;;1.30;0.90;;;;;;;-0.02;84.19;95124.69;5044233;28;20228;-74
2021/01/12 06:26:20;;;;;;;1.33;0.90;;;;;;;0.00;84.59;95127.97;5053570;28;20710;-74
2021/01/12 06:28:45;;;;;;;1.10;1.00;;;;;;;-0.07;84.39;95117.31;5071565;28;20204;-74
2021/01/12 06:31:11;;;;;;;1.50;0.80;;;;;;;0.00;84.02;95115.22;5072218;28;20212;-75
2021/01/12 06:33:40;;;;;;;1.47;1.00;;;;;;;-0.05;84.60;95118.03;5053994;28;20591;-75
2021/01/12 06:36:09;;;;;;;1.07;0.90;;;;;;;-0.07;84.24;95106.28;5053568;28;20236;-75
2021/01/12 06:38:37;;;;;;;0.90;0.80;;;;;;;0.02;84.09;95100.63;5071413;28;20192;-75
2021/01/12 06:41:05;;;;;;;1.07;1.00;;;;;;;0.11;83.78;95104.34;5054145;28;20242;-74
2021/01/12 06:43:30;;;;;;;1.13;0.90;;;;;;;0.10;83.95;95090.75;5052923;28;20233;-75
2021/01/12 06:45:56;;;;;;;0.90;0.80;;;;;;;0.07;83.84;95102.88;5070951;28;20613;-75
2021/01/12 06:48:21;;;;;;;1.27;0.93;;;;;;;0.02;84.36;95098.06;5070410;28;20216;-74
2021/01/12 06:50:47;;;;;;;1.30;0.83;;;;;;;-0.03;84.73;95089.84;5053463;28;20204;-75
2021/01/12 06:53:16;;;;;;;0.87;0.87;;;;;;;-0.06;84.78;95085.78;5037140;28;20227;-75
2021/01/12 06:55:42;;;;;;;1.07;0.97;;;;;;;-0.04;84.83;95083.13;5053478;28;20192;-74
2021/01/12 06:58:08;;;;;;;2.10;0.90;;;;;;;0.06;84.10;95091.84;5071057;28;20192;-75
2021/01/12 07:00:37;;;;;;;1.00;0.83;;;;;;;0.06;84.25;95088.47;5052908;28;20999;-74
2021/01/12 07:03:05;;;;;;;0.60;0.60;;;;;;;0.08;84.13;95082.34;5036741;28;20264;-74
2021/01/12 07:05:41;;;;;;;0.80;0.80;;;;;;;0.03;84.45;95070.81;5053413;28;20620;-75
2021/01/12 07:08:10;;;;;;;1.10;0.90;;;;;;;0.03;84.62;95073.34;5053194;28;20246;-75
2021/01/12 07:10:40;;;;;;;0.87;0.80;;;;;;;0.06;84.29;95066.31;5053882;28;20187;-74
2021/01/12 07:13:06;;;;;;;1.10;0.93;;;;;;;0.05;84.40;95074.88;5053239;28;20184;-74
2021/01/12 07:15:47;;;;;;;0.80;0.60;;;;;;;0.12;84.37;95060.84;5053713;28;20193;-74
2021/01/12 07:18:12;;;;;;;0.70;0.70;;;;;;;0.02;84.44;95061.50;5053737;28;20200;-76
2021/01/12 07:20:39;;;;;;;0.80;0.70;;;;;;;0.03;84.46;95058.03;5036350;28;20196;-75
2021/01/12 07:23:09;;;;;;;0.80;0.80;;;;;;;0.03;84.45;95053.75;5053101;28;20188;-76
2021/01/12 07:25:45;;;;;;;0.73;0.73;;;;;;;0.00;84.83;95053.94;5053885;28;20180;-76
2021/01/12 07:28:20;;;;;;;1.30;0.70;;;;;;;-0.04;84.71;95053.31;5053234;28;20219;-75
2021/01/12 07:30:55;;;;;;;1.07;0.70;;;;;;;-0.04;84.68;95032.88;5037837;28;20184;-75
2021/01/12 07:33:23;;;;;;;0.50;0.50;;;;;;;-0.03;84.80;95039.63;5045935;28;20180;-76
2021/01/12 07:35:53;;;;;;;2.53;1.13;;;;;;;-0.04;84.99;95042.28;5035301;28;20188;-76
2021/01/12 07:38:22;;;;;;;0.60;0.57;;;;;;;-0.11;85.62;95038.47;5034996;28;20193;-75
2021/01/12 07:40:47;;;;;;;0.50;0.50;;;;;;;-0.13;85.16;95036.00;5048714;28;20186;-76
2021/01/12 07:43:15;;;;;;;0.60;0.50;;;;;;;-0.04;84.97;95034.63;5071306;28;20210;-75
2021/01/12 07:45:40;;;;;;;0.40;0.40;;;;;;;-0.14;85.47;95043.78;5052793;28;20222;-75
2021/01/12 07:48:06;;;;;;;1.73;0.70;;;;;;;-0.07;85.19;95025.44;5077475;28;20216;-76
2021/01/12 07:50:31;;;;;;;0.50;0.50;;;;;;;-0.07;85.46;95022.88;5078446;28;20186;-74
2021/01/12 07:52:57;;;;;;;0.60;0.60;;;;;;;-0.10;85.16;95015.41;5036308;28;20191;-75
2021/01/12 07:55:23;;;;;;;3.87;0.70;;;;;;;-0.09;85.40;95013.66;5035856;28;20211;-75
2021/01/12 07:57:49;;;;;;;0.67;0.67;;;;;;;-0.03;85.40;95024.31;5070844;28;20196;-75
2021/01/12 08:00:16;;;;;;;0.40;0.40;;;;;;;-0.06;85.63;95027.06;5035481;28;20184;-75
2021/01/12 08:02:43;;;;;;;1.00;0.63;;;;;;;-0.07;85.47;95027.97;5052820;28;20222;-76
2021/01/12 08:05:10;;;;;;;0.50;0.40;;;;;;;-0.08;85.49;95028.91;5036144;28;20181;-74
2021/01/12 08:07:36;;;;;;;0.50;0.50;;;;;;;-0.05;85.52;95025.31;5054110;28;20209;-75
2021/01/12 08:10:05;;;;;;;0.40;0.40;;;;;;;0.06;85.06;95033.13;5039927;28;20533;-74
2021/01/12 08:12:31;;;;;;;0.43;0.43;;;;;;;0.06;84.87;95028.00;5074960;28;20188;-75
2021/01/12 08:15:07;;;;;;;0.40;0.40;;;;;;;0.06;85.22;95028.00;5057251;28;20181;-74
2021/01/12 08:17:33;;;;;;;0.60;0.50;;;;;;;0.11;84.39;95017.53;5056706;28;20589;-74
2021/01/12 08:20:03;;;;;;;0.40;0.40;;;;;;;0.13;84.90;95013.94;5056552;28;20185;-75
2021/01/12 08:22:28;;;;;;;0.40;0.40;;;;;;;0.15;84.60;95012.13;5056086;28;20183;-74
2021/01/12 08:25:03;;;;;;;0.30;0.30;;;;;;;0.11;85.09;95015.78;5056631;28;20267;-75
2021/01/12 08:27:28;;;;;;;0.50;0.50;;;;;;;0.20;84.35;95016.94;5039636;28;20302;-74
2021/01/12 08:29:53;;;;;;;0.50;0.50;;;;;;;0.16;84.63;95018.84;5056860;28;20185;-75
2021/01/12 08:32:22;;;;;;;0.60;0.60;;;;;;;0.12;84.59;95014.88;5039837;28;20674;-75
2021/01/12 08:34:56;;;;;;;0.57;0.47;;;;;;;0.07;84.94;95008.41;5039794;28;20176;-74
2021/01/12 08:37:22;;;;;;;0.40;0.40;;;;;;;0.06;85.21;95006.78;5025364;28;20249;-75
2021/01/12 08:39:48;;;;;;;1.07;0.97;;;;;;;0.01;85.01;95012.19;5053186;28;20173;-75
2021/01/12 08:42:15;;;;;;;1.03;0.90;;;;;;;0.02;85.09;95015.56;5019615;28;20247;-75
2021/01/12 08:44:41;;;;;;;0.67;0.60;;;;;;;0.03;84.87;95023.13;5035830;28;20602;-74
2021/01/12 08:47:07;;;;;;;2.43;0.80;;;;;;;0.03;84.66;95012.91;5034401;28;20752;-75
2021/01/12 08:49:33;;;;;;;2.43;1.03;;;;;;;-0.01;85.00;95004.59;5033268;28;20217;-75
2021/01/12 08:52:00;;;;;;;0.50;0.50;;;;;;;0.03;84.93;95007.78;5052594;28;20591;-75
2021/01/12 08:54:26;;;;;;;1.10;1.00;;;;;;;-0.02;85.06;95015.72;5052489;28;20239;-74
2021/01/12 08:56:56;;;;;;;0.80;0.60;;;;;;;-0.07;85.22;95004.19;5052385;28;20190;-74
2021/01/12 08:59:27;;;;;;;0.40;0.40;;;;;;;-0.09;85.65;94996.63;5035561;28;20181;-74
2021/01/12 09:01:52;;;;;;;0.63;0.60;;;;;;;-0.07;85.29;94993.97;5054517;28;20280;-75
2021/01/12 09:04:17;;;;;;;0.40;0.40;;;;;;;-0.13;85.80;94996.91;5052408;28;20697;-75
2021/01/12 09:06:42;;;;;;;2.00;1.40;;;;;;;-0.12;85.53;94978.94;5053434;28;20214;-74
2021/01/12 09:09:14;;;;;;;1.03;0.60;;;;;;;-0.18;85.94;94992.09;5035572;28;20566;-74
2021/01/12 09:11:48;;;;;;;0.40;0.40;;;;;;;-0.17;85.79;94987.81;5034304;28;20576;-76
2021/01/12 09:14:14;;;;;;;0.87;0.40;;;;;;;-0.17;85.65;94988.66;5055070;28;20621;-74
2021/01/12 09:16:40;;;;;;;0.53;0.50;;;;;;;-0.19;86.30;94984.53;5032982;28;20189;-74
2021/01/12 09:19:16;;;;;;;0.43;0.43;;;;;;;-0.22;86.13;94966.88;5050557;28;20208;-75
2021/01/12 09:21:41;;;;;;;0.30;0.30;;;;;;;-0.18;86.18;94978.50;5051763;28;20274;-74
2021/01/12 09:24:08;;;;;;;0.50;0.50;;;;;;;-0.23;86.15;94983.91;5035261;28;20184;-74
2021/01/12 09:26:35;;;;;;;0.40;0.40;;;;;;;-0.26;86.25;94976.47;5044435;28;20182;-75
2021/01/12 09:29:00;;;;;;;0.90;0.47;;;;;;;-0.28;86.61;94976.53;5034607;28;20201;-74
2021/01/12 09:31:26;;;;;;;0.43;0.43;;;;;;;-0.31;86.37;94983.56;5035618;28;20606;-75
2021/01/12 09:33:54;;;;;;;0.63;0.63;;;;;;;-0.36;86.51;94978.75;5041124;28;20256;-73
2021/01/12 09:36:20;;;;;;;0.73;0.53;;;;;;;-0.33;86.67;94983.69;5058433;28;20557;-74
2021/01/12 09:38:50;;;;;;;0.67;0.40;;;;;;;-0.40;87.03;94990.06;5018462;28;20210;-74
2021/01/12 09:41:20;;;;;;;0.50;0.50;;;;;;;-0.43;87.09;94984.34;5035095;28;20192;-76
2021/01/12 09:43:45;;;;;;;0.63;0.63;;;;;;;-0.38;87.13;94967.81;5050971;28;20182;-74
2021/01/12 09:46:11;;;;;;;0.60;0.60;;;;;;;-0.44;87.21;94975.03;5047057;28;20629;-75
2021/01/12 09:48:37;;;;;;;0.60;0.50;;;;;;;-0.47;87.40;94982.88;5029553;28;20666;-74
2021/01/12 09:51:03;;;;;;;1.03;0.80;;;;;;;-0.47;87.54;94976.03;5046288;28;20204;-75
2021/01/12 09:53:28;;;;;;;0.50;0.50;;;;;;;-0.47;87.30;94975.22;5046256;28;20193;-75
2021/01/12 09:55:54;;;;;;;0.40;0.40;;;;;;;-0.46;87.36;94972.59;5034686;28;20193;-74
2021/01/12 09:58:19;;;;;;;0.47;0.47;;;;;;;-0.46;87.68;94977.69;5034171;28;20237;-75
2021/01/12 10:00:44;;;;;;;0.30;0.30;;;;;;;-0.46;87.44;94979.41;5034747;28;20189;-75
2021/01/12 10:03:10;;;;;;;1.30;0.50;;;;;;;-0.52;87.51;94972.16;5035082;28;20200;-75
2021/01/12 10:05:40;;;;;;;1.40;0.40;;;;;;;-0.50;88.04;94957.56;5048227;28;20680;-74
2021/01/12 10:08:05;;;;;;;0.30;0.30;;;;;;;-0.46;87.60;94947.06;5043619;28;20213;-74
2021/01/12 10:10:31;;;;;;;1.17;1.00;;;;;;;-0.40;87.45;94941.59;5033700;28;20189;-76
2021/01/12 10:12:56;;;;;;;0.97;0.43;;;;;;;-0.40;87.54;94949.25;5051003;28;20641;-75
2021/01/12 10:15:22;;;;;;;0.40;0.40;;;;;;;-0.41;87.73;94952.72;5050020;28;20605;-74
2021/01/12 10:17:47;;;;;;;0.80;0.60;;;;;;;-0.39;87.65;94950.88;5050907;28;20190;-73
2021/01/12 10:20:12;;;;;;;0.30;0.30;;;;;;;-0.37;87.34;94923.53;5042029;28;20188;-75
2021/01/12 10:22:38;;;;;;;0.40;0.40;;;;;;;-0.40;87.59;94931.41;5034354;28;20558;-73
2021/01/12 10:25:04;;;;;;;0.33;0.33;;;;;;;-0.35;87.27;94931.94;5047350;28;20192;-73
2021/01/12 10:27:41;;;;;;;3.17;0.40;;;;;;;-0.25;87.34;94944.91;5068098;28;20224;-74
2021/01/12 10:30:08;;;;;;;0.30;0.30;;;;;;;-0.28;87.42;94933.16;5033001;28;20198;-71
2021/01/12 10:32:33;;;;;;;1.47;0.30;;;;;;;-0.28;87.42;94934.88;5034172;28;20204;-74
2021/01/12 10:34:59;;;;;;;0.37;0.30;;;;;;;-0.19;87.33;94931.75;5033626;28;20188;-73
2021/01/12 10:37:25;;;;;;;0.30;0.30;;;;;;;-0.19;86.95;94941.97;5050530;28;20731;-73
2021/01/12 10:39:51;;;;;;;0.80;0.30;;;;;;;-0.15;86.83;94947.72;5033492;28;20189;-72
2021/01/12 10:42:16;;;;;;;0.30;0.30;;;;;;;-0.13;86.64;94943.31;5033955;28;20180;-73
2021/01/12 10:44:41;;;;;;;0.33;0.33;;;;;;;-0.10;86.61;94925.25;5050316;28;20193;-74
2021/01/12 10:47:07;;;;;;;0.70;0.60;;;;;;;-0.04;86.42;94930.78;5056439;28;20212;-72
2021/01/12 10:49:32;;;;;;;0.97;0.60;;;;;;;-0.04;86.87;94933.34;5041810;28;20203;-74
2021/01/12 10:52:05;;;;;;;0.40;0.40;;;;;;;-0.01;86.48;94906.78;5051342;28;20182;-74
2021/01/12 10:54:30;;;;;;;0.40;0.40;;;;;;;-0.06;86.92;94922.41;5049957;28;20228;-74
2021/01/12 10:56:56;;;;;;;0.50;0.50;;;;;;;-0.03;86.22;94911.19;5033726;28;20180;-74
2021/01/12 10:59:22;;;;;;;0.60;0.60;;;;;;;-0.01;86.62;94907.59;5033582;28;20662;-74
2021/01/12 11:01:54;;;;;;;0.30;0.30;;;;;;;0.05;86.18;94903.84;5033786;28;20215;-73
2021/01/12 11:04:20;;;;;;;0.37;0.33;;;;;;;0.12;85.85;94905.09;5017384;28;20213;-74
2021/01/12 11:06:46;;;;;;;0.50;0.50;;;;;;;0.09;85.82;94904.44;5033317;28;20654;-74
2021/01/12 11:09:12;;;;;;;0.83;0.73;;;;;;;0.17;85.90;94899.66;5074868;28;20223;-75
2021/01/12 11:11:37;;;;;;;0.67;0.60;;;;;;;0.11;85.53;94867.72;5059354;28;20328;-74
2021/01/12 11:14:03;;;;;;;1.00;0.80;;;;;;;0.19;85.74;94891.00;5036066;28;20193;-75
2021/01/12 11:16:39;;;;;;;1.07;0.80;;;;;;;0.18;85.47;94876.59;5032113;28;20188;-75
2021/01/12 11:19:08;;;;;;;0.30;0.30;;;;;;;0.28;84.76;94877.63;5023630;28;20206;-74
2021/01/12 11:21:48;;;;;;;0.53;0.53;;;;;;;0.23;85.10;94872.00;5038190;28;20228;-75
2021/01/12 11:24:15;;;;;;;0.77;0.60;;;;;;;0.26;85.33;94870.97;5033512;28;20235;-75
2021/01/12 11:26:41;;;;;;;0.50;0.40;;;;;;;0.25;84.77;94862.50;5053248;28;20235;-74
2021/01/12 11:29:07;;;;;;;0.30;0.30;;;;;;;0.31;84.86;94863.81;5085967;28;20188;-75
2021/01/12 11:31:33;;;;;;;0.73;0.50;;;;;;;0.35;84.71;94859.31;5064574;28;20663;-74
2021/01/12 11:33:59;;;;;;;0.50;0.50;;;;;;;0.45;84.03;94852.69;5047503;28;20192;-74